Carthage, New York
Current Conditions -  °F | °C
As of 2:08 PM on Tuesday 21 Oct 2014 (Local Time) from KGTB Reporting Station
Overcast Overcast  
Wind Chill: 43°   Ceiling: 500
Heat Index: 48°   Visibility: 10mi
Dew Point: 48°   Wind: 13mph
Humidity: 100%   Direction: 40°NE
Pressure: 29.91"   Gusts: NA
Location:  43.98°N, 75.61°W
Report Text: KGTB 211808Z AUTO 04011KT 10SM OVC005 09/09 A2991 RMK AO2 DZE1808
Loading
Personal Weather Stations






























Interactive Weather Map
Tropical Storm Tracking
New forecast layout! Learn more

10-Day Weather Forecast

Advertisements
Track Severe Weather on mobile